UTA1507 URWW-URMM
Flight info
| Callsign | UTA1507 |
|---|---|
| Flight time | 0h 52m |
| Altitude | 34000 |
| Route | TONGI2E TONGI R807 NIRGA A835 DEPSO DEPSO5B |
| Aircraft | B38M/M-SDE1FGHILORVWXY/HB1 |
Departure
| Time | 2026-04-22 10:08 |
|---|---|
| Airport | Volgograd International Airport (URWW) |
Arrival
| Time | 2026-04-22 11:00 |
|---|---|
| Airport | Mineralnye Vody Airport (URMM) |
| Time | Latitude | Longitude | Altitude | Speed | Heading |
|---|---|---|---|---|---|
| 2026-04-22 09:52 | 48.78967 | 44.35042 | 455 ft | 0 kts | 339° |
| 2026-04-22 10:04 | 48.78957 | 44.35048 | 455 ft | 2 kts | 339° |
| 2026-04-22 10:04 | 48.78942 | 44.35057 | 455 ft | 2 kts | 338° |
| 2026-04-22 10:04 | 48.78926 | 44.35066 | 455 ft | 2 kts | 338° |
| 2026-04-22 10:04 | 48.78911 | 44.35075 | 455 ft | 2 kts | 345° |
| 2026-04-22 10:05 | 48.78895 | 44.35079 | 455 ft | 2 kts | 356° |
| 2026-04-22 10:05 | 48.78878 | 44.35079 | 455 ft | 2 kts | 17° |
| 2026-04-22 10:05 | 48.78870 | 44.35060 | 455 ft | 2 kts | 84° |
| 2026-04-22 10:05 | 48.78868 | 44.35040 | 455 ft | 1 kts | 77° |
| 2026-04-22 10:06 | 48.78868 | 44.35037 | 455 ft | 0 kts | 75° |
| 2026-04-22 10:06 | 48.78869 | 44.35042 | 455 ft | 0 kts | 75° |
| 2026-04-22 10:06 | 48.78871 | 44.35056 | 455 ft | 5 kts | 77° |
| 2026-04-22 10:06 | 48.78832 | 44.35132 | 455 ft | 14 kts | 164° |
| 2026-04-22 10:07 | 48.78684 | 44.35204 | 458 ft | 26 kts | 161° |
| 2026-04-22 10:07 | 48.78556 | 44.35215 | 471 ft | 16 kts | 231° |
| 2026-04-22 10:07 | 48.78446 | 44.34875 | 463 ft | 74 kts | 243° |
| 2026-04-22 10:07 | 48.78109 | 44.33821 | 462 ft | 146 kts | 244° |
| 2026-04-22 10:08 | 48.77626 | 44.32256 | 964 ft | 165 kts | 243° |
| 2026-04-22 10:08 | 48.77197 | 44.30768 | 2233 ft | 147 kts | 243° |
| 2026-04-22 10:08 | 48.76757 | 44.29226 | 2739 ft | 174 kts | 243° |
| 2026-04-22 10:08 | 48.76232 | 44.27421 | 3237 ft | 198 kts | 244° |
| 2026-04-22 10:09 | 48.75644 | 44.25423 | 3895 ft | 217 kts | 244° |
| 2026-04-22 10:09 | 48.75009 | 44.23242 | 4576 ft | 235 kts | 244° |
| 2026-04-22 10:09 | 48.74330 | 44.20911 | 5387 ft | 245 kts | 243° |
| 2026-04-22 10:09 | 48.73517 | 44.18663 | 6412 ft | 244 kts | 224° |
| 2026-04-22 10:10 | 48.72125 | 44.17222 | 7381 ft | 246 kts | 206° |
| 2026-04-22 10:10 | 48.70476 | 44.16401 | 8250 ft | 254 kts | 191° |
| 2026-04-22 10:10 | 48.68696 | 44.16461 | 9154 ft | 262 kts | 173° |
| 2026-04-22 10:10 | 48.66874 | 44.16945 | 9953 ft | 269 kts | 175° |
| 2026-04-22 10:11 | 48.64968 | 44.17406 | 10481 ft | 287 kts | 176° |
| 2026-04-22 10:11 | 48.62917 | 44.17878 | 10870 ft | 308 kts | 176° |
| 2026-04-22 10:11 | 48.60729 | 44.18375 | 11274 ft | 326 kts | 176° |
| 2026-04-22 10:11 | 48.58438 | 44.18897 | 11795 ft | 339 kts | 176° |
| 2026-04-22 10:12 | 48.56098 | 44.19435 | 12602 ft | 341 kts | 176° |
| 2026-04-22 10:12 | 48.53772 | 44.19978 | 13302 ft | 345 kts | 176° |
| 2026-04-22 10:12 | 48.51385 | 44.20534 | 14037 ft | 348 kts | 176° |
| 2026-04-22 10:12 | 48.48978 | 44.21096 | 14727 ft | 352 kts | 177° |
| 2026-04-22 10:13 | 48.46548 | 44.21661 | 15418 ft | 354 kts | 177° |
| 2026-04-22 10:13 | 48.44101 | 44.22231 | 16075 ft | 357 kts | 177° |
| 2026-04-22 10:13 | 48.41632 | 44.22806 | 16706 ft | 360 kts | 177° |
| 2026-04-22 10:13 | 48.39145 | 44.23384 | 17355 ft | 363 kts | 177° |
| 2026-04-22 10:14 | 48.36640 | 44.23966 | 17949 ft | 366 kts | 177° |
| 2026-04-22 10:14 | 48.34116 | 44.24551 | 18535 ft | 368 kts | 178° |
| 2026-04-22 10:14 | 48.31576 | 44.25141 | 19133 ft | 370 kts | 178° |
| 2026-04-22 10:14 | 48.29023 | 44.25731 | 19713 ft | 372 kts | 178° |
| 2026-04-22 10:15 | 48.26458 | 44.26326 | 20274 ft | 374 kts | 179° |
| 2026-04-22 10:15 | 48.23877 | 44.26923 | 20830 ft | 376 kts | 179° |
| 2026-04-22 10:15 | 48.21286 | 44.27521 | 21380 ft | 378 kts | 179° |
| 2026-04-22 10:15 | 48.18682 | 44.28123 | 21911 ft | 380 kts | 179° |
| 2026-04-22 10:16 | 48.16070 | 44.28726 | 22446 ft | 381 kts | 180° |
| 2026-04-22 10:16 | 48.13444 | 44.29331 | 22937 ft | 383 kts | 180° |
| 2026-04-22 10:16 | 48.10807 | 44.29939 | 23451 ft | 384 kts | 180° |
| 2026-04-22 10:16 | 48.08163 | 44.30547 | 23917 ft | 386 kts | 180° |
| 2026-04-22 10:17 | 48.05507 | 44.31158 | 24379 ft | 387 kts | 180° |
| 2026-04-22 10:17 | 48.02832 | 44.31773 | 24771 ft | 391 kts | 180° |
| 2026-04-22 10:17 | 48.00136 | 44.32392 | 25140 ft | 393 kts | 180° |
| 2026-04-22 10:17 | 47.97418 | 44.33015 | 25485 ft | 397 kts | 180° |
| 2026-04-22 10:18 | 47.94674 | 44.33624 | 25813 ft | 398 kts | 183° |
| 2026-04-22 10:18 | 47.91976 | 44.33429 | 26112 ft | 383 kts | 199° |
| 2026-04-22 10:18 | 47.89361 | 44.32566 | 26368 ft | 388 kts | 200° |
| 2026-04-22 10:18 | 47.86720 | 44.31685 | 26713 ft | 389 kts | 200° |
| 2026-04-22 10:19 | 47.84073 | 44.30771 | 27042 ft | 392 kts | 200° |
| 2026-04-22 10:19 | 47.81411 | 44.29831 | 27363 ft | 394 kts | 201° |
| 2026-04-22 10:19 | 47.78736 | 44.28876 | 27691 ft | 397 kts | 201° |
| 2026-04-22 10:19 | 47.76045 | 44.27911 | 28017 ft | 399 kts | 201° |
| 2026-04-22 10:20 | 47.73338 | 44.26940 | 28312 ft | 402 kts | 201° |
| 2026-04-22 10:20 | 47.70615 | 44.25963 | 28607 ft | 404 kts | 201° |
| 2026-04-22 10:20 | 47.67913 | 44.24994 | 28896 ft | 406 kts | 201° |
| 2026-04-22 10:20 | 47.65156 | 44.24006 | 29182 ft | 409 kts | 201° |
| 2026-04-22 10:21 | 47.62382 | 44.23015 | 29457 ft | 411 kts | 201° |
| 2026-04-22 10:21 | 47.59595 | 44.22018 | 29747 ft | 413 kts | 201° |
| 2026-04-22 10:21 | 47.56800 | 44.21020 | 30082 ft | 413 kts | 201° |
| 2026-04-22 10:21 | 47.54004 | 44.20025 | 30439 ft | 413 kts | 201° |
| 2026-04-22 10:22 | 47.51208 | 44.19029 | 30792 ft | 413 kts | 201° |
| 2026-04-22 10:22 | 47.48408 | 44.18032 | 31105 ft | 414 kts | 201° |
| 2026-04-22 10:22 | 47.45605 | 44.17037 | 31448 ft | 414 kts | 200° |
| 2026-04-22 10:22 | 47.42800 | 44.16042 | 31745 ft | 415 kts | 200° |
| 2026-04-22 10:23 | 47.39993 | 44.15046 | 32079 ft | 415 kts | 200° |
| 2026-04-22 10:23 | 47.37188 | 44.14052 | 32424 ft | 414 kts | 199° |
| 2026-04-22 10:23 | 47.34383 | 44.13061 | 32716 ft | 415 kts | 199° |
| 2026-04-22 10:23 | 47.31574 | 44.12068 | 33057 ft | 415 kts | 199° |
| 2026-04-22 10:24 | 47.28774 | 44.11079 | 33391 ft | 414 kts | 199° |
| 2026-04-22 10:24 | 47.25972 | 44.10091 | 33692 ft | 414 kts | 198° |
| 2026-04-22 10:24 | 47.23164 | 44.09102 | 33858 ft | 415 kts | 198° |
| 2026-04-22 10:24 | 47.20361 | 44.08116 | 33860 ft | 413 kts | 198° |
| 2026-04-22 10:25 | 47.14779 | 44.06155 | 33873 ft | 412 kts | 198° |
| 2026-04-22 10:25 | 47.09197 | 44.04197 | 33869 ft | 412 kts | 198° |
| 2026-04-22 10:26 | 47.04563 | 44.02576 | 33865 ft | 411 kts | 198° |
| 2026-04-22 10:26 | 46.98999 | 44.00637 | 33877 ft | 411 kts | 198° |
| 2026-04-22 10:27 | 46.93423 | 43.98712 | 33871 ft | 413 kts | 198° |
| 2026-04-22 10:27 | 46.87814 | 43.96778 | 33877 ft | 415 kts | 198° |
| 2026-04-22 10:28 | 46.82207 | 43.94850 | 33877 ft | 414 kts | 198° |
| 2026-04-22 10:28 | 46.76601 | 43.92925 | 33878 ft | 414 kts | 198° |
| 2026-04-22 10:29 | 46.71006 | 43.91008 | 33879 ft | 413 kts | 198° |
| 2026-04-22 10:29 | 46.65412 | 43.89097 | 33891 ft | 413 kts | 198° |
| 2026-04-22 10:30 | 46.59832 | 43.87193 | 33885 ft | 411 kts | 198° |
| 2026-04-22 10:30 | 46.54262 | 43.85298 | 33890 ft | 411 kts | 198° |
| 2026-04-22 10:31 | 46.48698 | 43.83410 | 33894 ft | 411 kts | 198° |
| 2026-04-22 10:31 | 46.43140 | 43.81529 | 33889 ft | 410 kts | 198° |
| 2026-04-22 10:32 | 46.37584 | 43.79653 | 33879 ft | 410 kts | 198° |
| 2026-04-22 10:32 | 46.32067 | 43.77793 | 33883 ft | 410 kts | 198° |
| 2026-04-22 10:33 | 46.26521 | 43.75930 | 33881 ft | 409 kts | 198° |
| 2026-04-22 10:33 | 46.20981 | 43.74070 | 33885 ft | 409 kts | 198° |
| 2026-04-22 10:34 | 46.15440 | 43.72215 | 33886 ft | 408 kts | 198° |
| 2026-04-22 10:34 | 46.09896 | 43.70363 | 33884 ft | 409 kts | 198° |
| 2026-04-22 10:35 | 46.04356 | 43.68515 | 33885 ft | 408 kts | 198° |
| 2026-04-22 10:35 | 45.98788 | 43.66783 | 33900 ft | 410 kts | 196° |
| 2026-04-22 10:36 | 45.93184 | 43.65200 | 33900 ft | 410 kts | 196° |
| 2026-04-22 10:36 | 45.87593 | 43.63609 | 33894 ft | 410 kts | 196° |
| 2026-04-22 10:37 | 45.79180 | 43.61221 | 33897 ft | 411 kts | 196° |
| 2026-04-22 10:38 | 45.73566 | 43.59631 | 33900 ft | 412 kts | 196° |
| 2026-04-22 10:38 | 45.67940 | 43.58040 | 33908 ft | 413 kts | 196° |
| 2026-04-22 10:39 | 45.62303 | 43.56451 | 33907 ft | 413 kts | 196° |
| 2026-04-22 10:39 | 45.59485 | 43.55657 | 33640 ft | 411 kts | 196° |
| 2026-04-22 10:39 | 45.56670 | 43.54864 | 32906 ft | 412 kts | 197° |
| 2026-04-22 10:39 | 45.53915 | 43.54090 | 32445 ft | 406 kts | 198° |
| 2026-04-22 10:40 | 45.51164 | 43.53318 | 31924 ft | 401 kts | 198° |
| 2026-04-22 10:40 | 45.48399 | 43.52541 | 31130 ft | 410 kts | 199° |
| 2026-04-22 10:40 | 45.45573 | 43.51756 | 30015 ft | 418 kts | 199° |
| 2026-04-22 10:40 | 45.42690 | 43.50956 | 29023 ft | 425 kts | 200° |
| 2026-04-22 10:41 | 45.39778 | 43.50152 | 28175 ft | 427 kts | 199° |
| 2026-04-22 10:41 | 45.36844 | 43.49340 | 27176 ft | 431 kts | 199° |
| 2026-04-22 10:41 | 45.33886 | 43.48522 | 26241 ft | 434 kts | 199° |
| 2026-04-22 10:41 | 45.30938 | 43.47706 | 25574 ft | 427 kts | 198° |
| 2026-04-22 10:42 | 45.28029 | 43.46905 | 24809 ft | 424 kts | 198° |
| 2026-04-22 10:42 | 45.25138 | 43.46108 | 24086 ft | 421 kts | 198° |
| 2026-04-22 10:42 | 45.22263 | 43.45316 | 23308 ft | 421 kts | 197° |
| 2026-04-22 10:42 | 45.19398 | 43.44528 | 22602 ft | 418 kts | 197° |
| 2026-04-22 10:43 | 45.16551 | 43.43745 | 21896 ft | 416 kts | 197° |
| 2026-04-22 10:43 | 45.13721 | 43.42968 | 21175 ft | 413 kts | 197° |
| 2026-04-22 10:43 | 45.10904 | 43.42195 | 20494 ft | 411 kts | 197° |
| 2026-04-22 10:43 | 45.08092 | 43.41527 | 19728 ft | 413 kts | 190° |
| 2026-04-22 10:44 | 45.05216 | 43.41329 | 19113 ft | 411 kts | 188° |
| 2026-04-22 10:44 | 45.02372 | 43.41138 | 18337 ft | 410 kts | 188° |
| 2026-04-22 10:44 | 44.99534 | 43.40953 | 17780 ft | 405 kts | 188° |
| 2026-04-22 10:44 | 44.96732 | 43.40771 | 17026 ft | 404 kts | 187° |
| 2026-04-22 10:45 | 44.93949 | 43.40594 | 16500 ft | 398 kts | 187° |
| 2026-04-22 10:45 | 44.91197 | 43.40416 | 15729 ft | 396 kts | 187° |
| 2026-04-22 10:45 | 44.88449 | 43.40239 | 15162 ft | 392 kts | 187° |
| 2026-04-22 10:45 | 44.85742 | 43.40066 | 14665 ft | 386 kts | 187° |
| 2026-04-22 10:46 | 44.83086 | 43.39897 | 13910 ft | 378 kts | 186° |
| 2026-04-22 10:46 | 44.80522 | 43.39733 | 13137 ft | 369 kts | 186° |
| 2026-04-22 10:46 | 44.78004 | 43.39572 | 12544 ft | 356 kts | 186° |
| 2026-04-22 10:46 | 44.75576 | 43.39417 | 12089 ft | 343 kts | 186° |
| 2026-04-22 10:47 | 44.73226 | 43.39267 | 11876 ft | 334 kts | 185° |
| 2026-04-22 10:47 | 44.70938 | 43.39121 | 11662 ft | 325 kts | 185° |
| 2026-04-22 10:47 | 44.68711 | 43.38979 | 11486 ft | 316 kts | 185° |
| 2026-04-22 10:47 | 44.66547 | 43.38841 | 11296 ft | 307 kts | 185° |
| 2026-04-22 10:48 | 44.64442 | 43.38707 | 11135 ft | 298 kts | 185° |
| 2026-04-22 10:48 | 44.62407 | 43.38578 | 11000 ft | 288 kts | 185° |
| 2026-04-22 10:48 | 44.60435 | 43.38456 | 10829 ft | 280 kts | 185° |
| 2026-04-22 10:48 | 44.58531 | 43.38329 | 10689 ft | 269 kts | 185° |
| 2026-04-22 10:49 | 44.56676 | 43.38211 | 10568 ft | 264 kts | 185° |
| 2026-04-22 10:49 | 44.54871 | 43.38100 | 10450 ft | 255 kts | 185° |
| 2026-04-22 10:49 | 44.53116 | 43.37988 | 10297 ft | 251 kts | 184° |
| 2026-04-22 10:49 | 44.51354 | 43.38217 | 10205 ft | 261 kts | 167° |
| 2026-04-22 10:50 | 44.49589 | 43.38941 | 10080 ft | 268 kts | 166° |
| 2026-04-22 10:50 | 44.47787 | 43.39688 | 9806 ft | 271 kts | 166° |
| 2026-04-22 10:50 | 44.45976 | 43.40432 | 9489 ft | 271 kts | 165° |
| 2026-04-22 10:50 | 44.44164 | 43.41179 | 9225 ft | 271 kts | 165° |
| 2026-04-22 10:51 | 44.42350 | 43.41929 | 8906 ft | 273 kts | 163° |
| 2026-04-22 10:51 | 44.40546 | 43.42673 | 8638 ft | 267 kts | 163° |
| 2026-04-22 10:51 | 44.38757 | 43.43414 | 8302 ft | 268 kts | 163° |
| 2026-04-22 10:51 | 44.36986 | 43.44155 | 8079 ft | 264 kts | 163° |
| 2026-04-22 10:52 | 44.35243 | 43.44883 | 7830 ft | 258 kts | 163° |
| 2026-04-22 10:52 | 44.33526 | 43.45587 | 7559 ft | 256 kts | 163° |
| 2026-04-22 10:52 | 44.31828 | 43.46286 | 7238 ft | 252 kts | 163° |
| 2026-04-22 10:52 | 44.30123 | 43.46929 | 6930 ft | 258 kts | 173° |
| 2026-04-22 10:53 | 44.28336 | 43.46707 | 6654 ft | 261 kts | 198° |
| 2026-04-22 10:53 | 44.26717 | 43.45587 | 6427 ft | 266 kts | 210° |
| 2026-04-22 10:53 | 44.25131 | 43.44260 | 6140 ft | 264 kts | 210° |
| 2026-04-22 10:53 | 44.23602 | 43.42949 | 5977 ft | 251 kts | 211° |
| 2026-04-22 10:54 | 44.22151 | 43.41691 | 5760 ft | 240 kts | 211° |
| 2026-04-22 10:54 | 44.20771 | 43.40493 | 5652 ft | 227 kts | 211° |
| 2026-04-22 10:54 | 44.19432 | 43.39316 | 5399 ft | 227 kts | 211° |
| 2026-04-22 10:54 | 44.18118 | 43.38159 | 5242 ft | 220 kts | 211° |
| 2026-04-22 10:55 | 44.16857 | 43.37047 | 5129 ft | 209 kts | 211° |
| 2026-04-22 10:55 | 44.15650 | 43.35983 | 5031 ft | 203 kts | 211° |
| 2026-04-22 10:55 | 44.14458 | 43.34933 | 4940 ft | 202 kts | 211° |
| 2026-04-22 10:55 | 44.13310 | 43.33793 | 4719 ft | 205 kts | 227° |
| 2026-04-22 10:56 | 44.12668 | 43.32046 | 4411 ft | 204 kts | 262° |
| 2026-04-22 10:56 | 44.12818 | 43.30149 | 4239 ft | 197 kts | 294° |
| 2026-04-22 10:56 | 44.13494 | 43.28480 | 4019 ft | 200 kts | 303° |
| 2026-04-22 10:56 | 44.14243 | 43.26853 | 3752 ft | 198 kts | 303° |
| 2026-04-22 10:57 | 44.14978 | 43.25242 | 3504 ft | 197 kts | 303° |
| 2026-04-22 10:57 | 44.15709 | 43.23636 | 3249 ft | 193 kts | 303° |
| 2026-04-22 10:57 | 44.16404 | 43.22133 | 2986 ft | 179 kts | 304° |
| 2026-04-22 10:57 | 44.17073 | 43.20653 | 2789 ft | 182 kts | 302° |
| 2026-04-22 10:58 | 44.17732 | 43.19187 | 2547 ft | 174 kts | 303° |
| 2026-04-22 10:58 | 44.18363 | 43.17805 | 2332 ft | 164 kts | 301° |
| 2026-04-22 10:58 | 44.18935 | 43.16526 | 2156 ft | 148 kts | 302° |
| 2026-04-22 10:58 | 44.19470 | 43.15368 | 1934 ft | 136 kts | 301° |
| 2026-04-22 10:59 | 44.19953 | 43.14300 | 1728 ft | 125 kts | 300° |
| 2026-04-22 10:59 | 44.20423 | 43.13266 | 1572 ft | 127 kts | 300° |
| 2026-04-22 10:59 | 44.20897 | 43.12219 | 1418 ft | 129 kts | 301° |
| 2026-04-22 10:59 | 44.21396 | 43.11159 | 1221 ft | 133 kts | 300° |
| 2026-04-22 11:00 | 44.21887 | 43.10050 | 1059 ft | 132 kts | 301° |
| 2026-04-22 11:00 | 44.22289 | 43.09164 | 1054 ft | 72 kts | 302° |
| 2026-04-22 11:00 | 44.22452 | 43.08802 | 1056 ft | 19 kts | 299° |
| 2026-04-22 11:00 | 44.22446 | 43.08750 | 1057 ft | 1 kts | 186° |
| 2026-04-22 11:01 | 44.22434 | 43.08767 | 1056 ft | 6 kts | 127° |
| 2026-04-22 11:01 | 44.22368 | 43.08835 | 1054 ft | 17 kts | 153° |
| 2026-04-22 11:01 | 44.22260 | 43.08916 | 1055 ft | 18 kts | 151° |
| 2026-04-22 11:01 | 44.22147 | 43.08998 | 1055 ft | 19 kts | 153° |
| 2026-04-22 11:02 | 44.22025 | 43.09086 | 1054 ft | 21 kts | 153° |
| 2026-04-22 11:02 | 44.21890 | 43.09088 | 1053 ft | 13 kts | 212° |
| 2026-04-22 11:02 | 44.21844 | 43.09005 | 1053 ft | 12 kts | 232° |
| 2026-04-22 11:02 | 44.21778 | 43.08943 | 1053 ft | 2 kts | 211° |
| 2026-04-22 11:03 | 44.21772 | 43.08938 | 1053 ft | 0 kts | 212° |